N11DL CYDB-CBK7
Flight info
| Callsign | N11DL |
|---|---|
| Flight time | N/A |
| Altitude | 11500 |
| Route | DCT |
| Aircraft | AEST/L-SDFGRY/S |
Departure
| Time | N/A |
|---|---|
| Airport | Burwash Airport (CYDB) |
Arrival
| Time | 2026-04-15 22:04 |
|---|---|
| Airport | Mile 422 (Alaska Highway) Airport (CBK7) |
| Time | Latitude | Longitude | Altitude | Speed | Heading |
|---|---|---|---|---|---|
| 2026-04-15 20:46 | 60.44123 | -132.71757 | 11468 ft | 215 kts | 113° |
| 2026-04-15 20:47 | 60.43623 | -132.68904 | 11469 ft | 215 kts | 113° |
| 2026-04-15 20:47 | 60.43122 | -132.66049 | 11469 ft | 215 kts | 113° |
| 2026-04-15 20:47 | 60.42619 | -132.63197 | 11468 ft | 215 kts | 113° |
| 2026-04-15 20:47 | 60.42116 | -132.60343 | 11467 ft | 215 kts | 113° |
| 2026-04-15 20:48 | 60.41613 | -132.57486 | 11468 ft | 216 kts | 113° |
| 2026-04-15 20:48 | 60.41106 | -132.54621 | 11465 ft | 216 kts | 113° |
| 2026-04-15 20:48 | 60.40597 | -132.51761 | 11471 ft | 216 kts | 113° |
| 2026-04-15 20:48 | 60.40087 | -132.48894 | 11482 ft | 217 kts | 113° |
| 2026-04-15 20:49 | 60.39576 | -132.46023 | 11486 ft | 217 kts | 113° |
| 2026-04-15 20:49 | 60.39065 | -132.43144 | 11494 ft | 218 kts | 113° |
| 2026-04-15 20:49 | 60.38549 | -132.40254 | 11486 ft | 219 kts | 113° |
| 2026-04-15 20:49 | 60.38033 | -132.37368 | 11471 ft | 218 kts | 113° |
| 2026-04-15 20:50 | 60.37525 | -132.34520 | 11494 ft | 214 kts | 114° |
| 2026-04-15 20:50 | 60.37028 | -132.31742 | 11501 ft | 213 kts | 114° |
| 2026-04-15 20:50 | 60.36524 | -132.28926 | 11501 ft | 213 kts | 114° |
| 2026-04-15 20:50 | 60.36019 | -132.26113 | 11508 ft | 213 kts | 114° |
| 2026-04-15 20:51 | 60.35514 | -132.23305 | 11508 ft | 213 kts | 114° |
| 2026-04-15 20:51 | 60.35006 | -132.20488 | 11506 ft | 213 kts | 114° |
| 2026-04-15 20:51 | 60.34497 | -132.17672 | 11535 ft | 213 kts | 114° |
| 2026-04-15 20:51 | 60.33985 | -132.14852 | 11525 ft | 214 kts | 114° |
| 2026-04-15 20:52 | 60.33474 | -132.12030 | 11528 ft | 214 kts | 114° |
| 2026-04-15 20:52 | 60.32963 | -132.09210 | 11527 ft | 214 kts | 114° |
| 2026-04-15 20:52 | 60.32451 | -132.06388 | 11526 ft | 214 kts | 114° |
| 2026-04-15 20:52 | 60.31937 | -132.03563 | 11531 ft | 215 kts | 114° |
| 2026-04-15 20:53 | 60.31423 | -132.00740 | 11520 ft | 214 kts | 114° |
| 2026-04-15 20:53 | 60.30910 | -131.97927 | 11526 ft | 214 kts | 114° |
| 2026-04-15 20:53 | 60.30397 | -131.95122 | 11520 ft | 213 kts | 114° |
| 2026-04-15 20:53 | 60.29883 | -131.92314 | 11520 ft | 213 kts | 114° |
| 2026-04-15 20:54 | 60.29368 | -131.89499 | 11518 ft | 214 kts | 114° |
| 2026-04-15 20:54 | 60.28852 | -131.86686 | 11516 ft | 214 kts | 114° |
| 2026-04-15 20:54 | 60.28337 | -131.83883 | 11522 ft | 213 kts | 114° |
| 2026-04-15 20:54 | 60.27827 | -131.81115 | 11520 ft | 213 kts | 114° |
| 2026-04-15 20:55 | 60.27310 | -131.78310 | 11518 ft | 214 kts | 114° |
| 2026-04-15 20:55 | 60.26792 | -131.75503 | 11518 ft | 214 kts | 114° |
| 2026-04-15 20:55 | 60.26274 | -131.72698 | 11526 ft | 214 kts | 114° |
| 2026-04-15 20:55 | 60.25752 | -131.69883 | 11520 ft | 215 kts | 114° |
| 2026-04-15 20:56 | 60.25229 | -131.67067 | 11532 ft | 215 kts | 114° |
| 2026-04-15 20:56 | 60.24701 | -131.64243 | 11523 ft | 215 kts | 114° |
| 2026-04-15 20:56 | 60.24179 | -131.61429 | 11526 ft | 214 kts | 114° |
| 2026-04-15 20:56 | 60.23657 | -131.58624 | 11531 ft | 214 kts | 114° |
| 2026-04-15 20:57 | 60.23313 | -131.56768 | 11527 ft | 214 kts | 114° |
| 2026-04-15 20:57 | 60.22793 | -131.53966 | 11533 ft | 214 kts | 114° |
| 2026-04-15 20:57 | 60.22267 | -131.51149 | 11533 ft | 216 kts | 114° |
| 2026-04-15 20:57 | 60.21738 | -131.48316 | 11512 ft | 215 kts | 114° |
| 2026-04-15 20:58 | 60.21213 | -131.45506 | 11523 ft | 214 kts | 114° |
| 2026-04-15 20:58 | 60.20683 | -131.42699 | 11523 ft | 215 kts | 114° |
| 2026-04-15 20:58 | 60.20157 | -131.39898 | 11531 ft | 214 kts | 114° |
| 2026-04-15 20:58 | 60.19626 | -131.37094 | 11534 ft | 214 kts | 114° |
| 2026-04-15 20:59 | 60.19102 | -131.34306 | 11548 ft | 213 kts | 114° |
| 2026-04-15 20:59 | 60.18576 | -131.31514 | 11544 ft | 214 kts | 114° |
| 2026-04-15 20:59 | 60.18049 | -131.28722 | 11541 ft | 214 kts | 114° |
| 2026-04-15 20:59 | 60.17525 | -131.25954 | 11544 ft | 215 kts | 114° |
| 2026-04-15 21:00 | 60.16993 | -131.23149 | 11545 ft | 215 kts | 114° |
| 2026-04-15 21:00 | 60.16461 | -131.20343 | 11540 ft | 215 kts | 114° |
| 2026-04-15 21:00 | 60.15928 | -131.17527 | 11545 ft | 215 kts | 114° |
| 2026-04-15 21:00 | 60.15394 | -131.14723 | 11545 ft | 215 kts | 114° |
| 2026-04-15 21:01 | 60.14860 | -131.11923 | 11541 ft | 215 kts | 114° |
| 2026-04-15 21:01 | 60.14324 | -131.09126 | 11537 ft | 215 kts | 114° |
| 2026-04-15 21:01 | 60.13790 | -131.06336 | 11537 ft | 214 kts | 114° |
| 2026-04-15 21:01 | 60.13257 | -131.03549 | 11538 ft | 214 kts | 114° |
| 2026-04-15 21:02 | 60.12724 | -131.00775 | 11527 ft | 213 kts | 114° |
| 2026-04-15 21:02 | 60.12189 | -130.98020 | 11533 ft | 211 kts | 114° |
| 2026-04-15 21:02 | 60.11661 | -130.95277 | 11541 ft | 211 kts | 114° |
| 2026-04-15 21:02 | 60.11135 | -130.92532 | 11543 ft | 211 kts | 114° |
| 2026-04-15 21:03 | 60.10605 | -130.89780 | 11543 ft | 212 kts | 114° |
| 2026-04-15 21:03 | 60.10075 | -130.87025 | 11540 ft | 212 kts | 114° |
| 2026-04-15 21:03 | 60.09551 | -130.84309 | 11546 ft | 212 kts | 114° |
| 2026-04-15 21:03 | 60.09015 | -130.81540 | 11543 ft | 213 kts | 114° |
| 2026-04-15 21:04 | 60.08477 | -130.78767 | 11527 ft | 214 kts | 114° |
| 2026-04-15 21:04 | 60.07940 | -130.75998 | 11537 ft | 213 kts | 114° |
| 2026-04-15 21:04 | 60.07400 | -130.73218 | 11535 ft | 214 kts | 114° |
| 2026-04-15 21:04 | 60.06859 | -130.70446 | 11534 ft | 214 kts | 114° |
| 2026-04-15 21:05 | 60.06320 | -130.67675 | 11537 ft | 213 kts | 114° |
| 2026-04-15 21:05 | 60.05779 | -130.64908 | 11540 ft | 214 kts | 114° |
| 2026-04-15 21:05 | 60.05236 | -130.62135 | 11539 ft | 214 kts | 114° |
| 2026-04-15 21:05 | 60.04691 | -130.59357 | 11534 ft | 214 kts | 114° |
| 2026-04-15 21:06 | 60.04148 | -130.56587 | 11534 ft | 214 kts | 114° |
| 2026-04-15 21:06 | 60.03604 | -130.53813 | 11536 ft | 214 kts | 114° |
| 2026-04-15 21:06 | 60.03060 | -130.51045 | 11530 ft | 214 kts | 114° |
| 2026-04-15 21:06 | 60.02517 | -130.48287 | 11536 ft | 213 kts | 114° |
| 2026-04-15 21:07 | 60.01981 | -130.45569 | 11532 ft | 213 kts | 114° |
| 2026-04-15 21:07 | 60.01437 | -130.42805 | 11525 ft | 214 kts | 114° |
| 2026-04-15 21:07 | 60.00893 | -130.40053 | 11529 ft | 212 kts | 114° |
| 2026-04-15 21:07 | 60.00351 | -130.37317 | 11536 ft | 212 kts | 114° |
| 2026-04-15 21:08 | 59.99809 | -130.34580 | 11524 ft | 212 kts | 115° |
| 2026-04-15 21:08 | 59.99265 | -130.31844 | 11530 ft | 211 kts | 115° |
| 2026-04-15 21:08 | 59.98723 | -130.29119 | 11534 ft | 212 kts | 115° |
| 2026-04-15 21:08 | 59.98176 | -130.26377 | 11525 ft | 212 kts | 115° |
| 2026-04-15 21:09 | 59.97631 | -130.23644 | 11525 ft | 212 kts | 115° |
| 2026-04-15 21:09 | 59.97087 | -130.20916 | 11522 ft | 212 kts | 115° |
| 2026-04-15 21:09 | 59.96540 | -130.18176 | 11515 ft | 213 kts | 115° |
| 2026-04-15 21:09 | 59.95997 | -130.15462 | 11518 ft | 213 kts | 115° |
| 2026-04-15 21:10 | 59.95447 | -130.12719 | 11527 ft | 213 kts | 115° |
| 2026-04-15 21:10 | 59.94895 | -130.09970 | 11520 ft | 214 kts | 115° |
| 2026-04-15 21:10 | 59.94341 | -130.07223 | 11510 ft | 213 kts | 115° |
| 2026-04-15 21:10 | 59.93787 | -130.04474 | 11520 ft | 213 kts | 115° |
| 2026-04-15 21:11 | 59.93235 | -130.01729 | 11520 ft | 213 kts | 115° |
| 2026-04-15 21:11 | 59.92682 | -129.98985 | 11515 ft | 213 kts | 115° |
| 2026-04-15 21:11 | 59.92129 | -129.96245 | 11521 ft | 213 kts | 115° |
| 2026-04-15 21:11 | 59.91576 | -129.93501 | 11519 ft | 213 kts | 115° |
| 2026-04-15 21:12 | 59.91021 | -129.90767 | 11516 ft | 213 kts | 115° |
| 2026-04-15 21:12 | 59.90461 | -129.88017 | 11521 ft | 214 kts | 115° |
| 2026-04-15 21:12 | 59.89899 | -129.85262 | 11514 ft | 215 kts | 115° |
| 2026-04-15 21:12 | 59.89337 | -129.82508 | 11512 ft | 214 kts | 115° |
| 2026-04-15 21:13 | 59.88778 | -129.79765 | 11515 ft | 214 kts | 115° |
| 2026-04-15 21:13 | 59.88220 | -129.77029 | 11520 ft | 213 kts | 115° |
| 2026-04-15 21:13 | 59.87664 | -129.74296 | 11521 ft | 213 kts | 115° |
| 2026-04-15 21:13 | 59.87113 | -129.71599 | 11516 ft | 213 kts | 115° |
| 2026-04-15 21:14 | 59.86554 | -129.68869 | 11505 ft | 213 kts | 115° |
| 2026-04-15 21:14 | 59.85994 | -129.66121 | 11524 ft | 214 kts | 115° |
| 2026-04-15 21:14 | 59.85431 | -129.63376 | 11533 ft | 214 kts | 115° |
| 2026-04-15 21:14 | 59.84864 | -129.60626 | 11529 ft | 215 kts | 116° |
| 2026-04-15 21:15 | 59.84297 | -129.57880 | 11535 ft | 215 kts | 115° |
| 2026-04-15 21:15 | 59.83730 | -129.55133 | 11536 ft | 215 kts | 116° |
| 2026-04-15 21:15 | 59.83163 | -129.52390 | 11540 ft | 214 kts | 116° |
| 2026-04-15 21:15 | 59.82596 | -129.49655 | 11535 ft | 214 kts | 116° |
| 2026-04-15 21:16 | 59.82028 | -129.46921 | 11543 ft | 214 kts | 116° |
| 2026-04-15 21:16 | 59.81459 | -129.44181 | 11531 ft | 215 kts | 116° |
| 2026-04-15 21:16 | 59.80889 | -129.41435 | 11529 ft | 215 kts | 116° |
| 2026-04-15 21:16 | 59.80320 | -129.38692 | 11539 ft | 214 kts | 116° |
| 2026-04-15 21:17 | 59.79750 | -129.35958 | 11531 ft | 215 kts | 116° |
| 2026-04-15 21:17 | 59.79177 | -129.33215 | 11531 ft | 215 kts | 116° |
| 2026-04-15 21:17 | 59.78605 | -129.30477 | 11535 ft | 215 kts | 116° |
| 2026-04-15 21:17 | 59.78033 | -129.27741 | 11541 ft | 215 kts | 116° |
| 2026-04-15 21:18 | 59.77462 | -129.25006 | 11531 ft | 215 kts | 116° |
| 2026-04-15 21:18 | 59.76889 | -129.22270 | 11532 ft | 215 kts | 116° |
| 2026-04-15 21:18 | 59.76321 | -129.19565 | 11538 ft | 215 kts | 116° |
| 2026-04-15 21:18 | 59.75747 | -129.16835 | 11540 ft | 214 kts | 116° |
| 2026-04-15 21:19 | 59.75173 | -129.14109 | 11537 ft | 214 kts | 116° |
| 2026-04-15 21:19 | 59.74598 | -129.11380 | 11539 ft | 215 kts | 116° |
| 2026-04-15 21:19 | 59.74020 | -129.08644 | 11540 ft | 215 kts | 116° |
| 2026-04-15 21:19 | 59.73443 | -129.05912 | 11545 ft | 215 kts | 116° |
| 2026-04-15 21:20 | 59.72863 | -129.03182 | 11535 ft | 215 kts | 116° |
| 2026-04-15 21:20 | 59.72283 | -129.00454 | 11542 ft | 215 kts | 116° |
| 2026-04-15 21:20 | 59.71703 | -128.97727 | 11542 ft | 215 kts | 116° |
| 2026-04-15 21:20 | 59.71124 | -128.94995 | 11541 ft | 215 kts | 116° |
| 2026-04-15 21:21 | 59.70545 | -128.92271 | 11544 ft | 215 kts | 116° |
| 2026-04-15 21:21 | 59.69965 | -128.89539 | 11543 ft | 215 kts | 116° |
| 2026-04-15 21:21 | 59.69384 | -128.86811 | 11542 ft | 215 kts | 116° |
| 2026-04-15 21:21 | 59.68803 | -128.84083 | 11550 ft | 215 kts | 116° |
| 2026-04-15 21:22 | 59.68216 | -128.81361 | 11543 ft | 215 kts | 116° |
| 2026-04-15 21:22 | 59.67638 | -128.78673 | 11538 ft | 215 kts | 116° |
| 2026-04-15 21:22 | 59.67055 | -128.75956 | 11542 ft | 215 kts | 116° |
| 2026-04-15 21:22 | 59.66473 | -128.73240 | 11542 ft | 215 kts | 116° |
| 2026-04-15 21:23 | 59.65889 | -128.70523 | 11532 ft | 215 kts | 116° |
| 2026-04-15 21:23 | 59.65305 | -128.67803 | 11542 ft | 215 kts | 116° |
| 2026-04-15 21:23 | 59.64721 | -128.65088 | 11542 ft | 215 kts | 116° |
| 2026-04-15 21:23 | 59.64135 | -128.62368 | 11537 ft | 215 kts | 116° |
| 2026-04-15 21:24 | 59.63547 | -128.59640 | 11539 ft | 215 kts | 116° |
| 2026-04-15 21:24 | 59.62959 | -128.56929 | 11540 ft | 215 kts | 116° |
| 2026-04-15 21:24 | 59.62371 | -128.54215 | 11549 ft | 215 kts | 116° |
| 2026-04-15 21:24 | 59.61783 | -128.51504 | 11544 ft | 215 kts | 116° |
| 2026-04-15 21:25 | 59.61197 | -128.48796 | 11545 ft | 214 kts | 116° |
| 2026-04-15 21:25 | 59.60609 | -128.46084 | 11557 ft | 215 kts | 116° |
| 2026-04-15 21:25 | 59.60017 | -128.43370 | 11547 ft | 215 kts | 116° |
| 2026-04-15 21:25 | 59.59424 | -128.40653 | 11550 ft | 215 kts | 116° |
| 2026-04-15 21:26 | 59.58831 | -128.37949 | 11545 ft | 214 kts | 116° |
| 2026-04-15 21:26 | 59.58234 | -128.35252 | 11551 ft | 215 kts | 116° |
| 2026-04-15 21:26 | 59.57641 | -128.32550 | 11550 ft | 215 kts | 116° |
| 2026-04-15 21:26 | 59.57057 | -128.29884 | 11550 ft | 214 kts | 115° |
| 2026-04-15 21:27 | 59.56467 | -128.27186 | 11551 ft | 214 kts | 115° |
| 2026-04-15 21:27 | 59.55875 | -128.24481 | 11554 ft | 215 kts | 116° |
| 2026-04-15 21:27 | 59.55282 | -128.21779 | 11551 ft | 215 kts | 116° |
| 2026-04-15 21:27 | 59.54690 | -128.19084 | 11553 ft | 214 kts | 116° |
| 2026-04-15 21:28 | 59.54097 | -128.16389 | 11554 ft | 214 kts | 116° |
| 2026-04-15 21:28 | 59.53501 | -128.13689 | 11554 ft | 215 kts | 116° |
| 2026-04-15 21:28 | 59.52904 | -128.10990 | 11551 ft | 215 kts | 116° |
| 2026-04-15 21:28 | 59.52307 | -128.08298 | 11553 ft | 214 kts | 116° |
| 2026-04-15 21:29 | 59.51710 | -128.05609 | 11551 ft | 214 kts | 116° |
| 2026-04-15 21:29 | 59.51114 | -128.02919 | 11554 ft | 214 kts | 116° |
| 2026-04-15 21:29 | 59.50517 | -128.00224 | 11572 ft | 214 kts | 116° |
| 2026-04-15 21:29 | 59.49919 | -127.97534 | 11573 ft | 215 kts | 116° |
| 2026-04-15 21:30 | 59.49317 | -127.94844 | 11571 ft | 215 kts | 116° |
| 2026-04-15 21:30 | 59.48717 | -127.92157 | 11570 ft | 214 kts | 116° |
| 2026-04-15 21:30 | 59.48117 | -127.89467 | 11574 ft | 214 kts | 116° |
| 2026-04-15 21:30 | 59.47517 | -127.86781 | 11572 ft | 215 kts | 116° |
| 2026-04-15 21:31 | 59.46317 | -127.81437 | 11568 ft | 215 kts | 116° |
| 2026-04-15 21:31 | 59.45712 | -127.78754 | 11569 ft | 215 kts | 116° |
| 2026-04-15 21:32 | 59.44505 | -127.73394 | 11563 ft | 214 kts | 116° |
| 2026-04-15 21:32 | 59.43896 | -127.70723 | 11564 ft | 214 kts | 116° |
| 2026-04-15 21:32 | 59.43293 | -127.68059 | 11566 ft | 213 kts | 116° |
| 2026-04-15 21:32 | 59.42694 | -127.65396 | 11569 ft | 213 kts | 116° |
| 2026-04-15 21:33 | 59.42093 | -127.62729 | 11567 ft | 214 kts | 116° |
| 2026-04-15 21:33 | 59.41489 | -127.60048 | 11563 ft | 214 kts | 116° |
| 2026-04-15 21:33 | 59.40883 | -127.57371 | 11568 ft | 214 kts | 116° |
| 2026-04-15 21:33 | 59.40277 | -127.54698 | 11566 ft | 215 kts | 116° |
| 2026-04-15 21:34 | 59.39670 | -127.52022 | 11565 ft | 214 kts | 116° |
| 2026-04-15 21:34 | 59.39071 | -127.49393 | 11567 ft | 214 kts | 116° |
| 2026-04-15 21:34 | 59.38463 | -127.46733 | 11590 ft | 214 kts | 116° |
| 2026-04-15 21:34 | 59.37846 | -127.44059 | 11575 ft | 215 kts | 116° |
| 2026-04-15 21:35 | 59.37230 | -127.41378 | 11568 ft | 216 kts | 116° |
| 2026-04-15 21:35 | 59.36617 | -127.38691 | 11570 ft | 216 kts | 115° |
| 2026-04-15 21:35 | 59.36004 | -127.36005 | 11569 ft | 216 kts | 115° |
| 2026-04-15 21:35 | 59.35389 | -127.33318 | 11573 ft | 216 kts | 116° |
| 2026-04-15 21:36 | 59.34774 | -127.30631 | 11575 ft | 216 kts | 116° |
| 2026-04-15 21:36 | 59.34157 | -127.27950 | 11572 ft | 216 kts | 116° |
| 2026-04-15 21:36 | 59.33540 | -127.25268 | 11570 ft | 216 kts | 116° |
| 2026-04-15 21:36 | 59.32924 | -127.22592 | 11562 ft | 216 kts | 116° |
| 2026-04-15 21:37 | 59.32307 | -127.19919 | 11564 ft | 215 kts | 116° |
| 2026-04-15 21:37 | 59.31688 | -127.17241 | 11563 ft | 216 kts | 116° |
| 2026-04-15 21:37 | 59.31069 | -127.14566 | 11563 ft | 216 kts | 116° |
| 2026-04-15 21:37 | 59.30457 | -127.11924 | 11562 ft | 216 kts | 116° |
| 2026-04-15 21:38 | 59.29836 | -127.09254 | 11564 ft | 216 kts | 116° |
| 2026-04-15 21:38 | 59.29214 | -127.06576 | 11565 ft | 216 kts | 116° |
| 2026-04-15 21:38 | 59.28590 | -127.03895 | 11551 ft | 216 kts | 116° |
| 2026-04-15 21:38 | 59.27969 | -127.01226 | 11566 ft | 216 kts | 116° |
| 2026-04-15 21:39 | 59.27347 | -126.98558 | 11547 ft | 216 kts | 116° |
| 2026-04-15 21:39 | 59.26723 | -126.95889 | 11553 ft | 216 kts | 116° |
| 2026-04-15 21:39 | 59.26098 | -126.93219 | 11553 ft | 216 kts | 116° |
| 2026-04-15 21:39 | 59.25472 | -126.90542 | 11549 ft | 216 kts | 116° |
| 2026-04-15 21:40 | 59.24847 | -126.87878 | 11554 ft | 216 kts | 116° |
| 2026-04-15 21:40 | 59.24219 | -126.85206 | 11551 ft | 216 kts | 116° |
| 2026-04-15 21:40 | 59.23593 | -126.82541 | 11551 ft | 216 kts | 116° |
| 2026-04-15 21:40 | 59.22967 | -126.79881 | 11556 ft | 216 kts | 116° |
| 2026-04-15 21:41 | 59.22340 | -126.77214 | 11552 ft | 216 kts | 116° |
| 2026-04-15 21:41 | 59.21712 | -126.74556 | 11547 ft | 215 kts | 116° |
| 2026-04-15 21:41 | 59.21085 | -126.71899 | 11544 ft | 216 kts | 116° |
| 2026-04-15 21:41 | 59.20455 | -126.69239 | 11544 ft | 216 kts | 116° |
| 2026-04-15 21:42 | 59.19825 | -126.66577 | 11543 ft | 216 kts | 116° |
| 2026-04-15 21:42 | 59.19202 | -126.63949 | 11544 ft | 216 kts | 116° |
| 2026-04-15 21:42 | 59.18571 | -126.61292 | 11542 ft | 216 kts | 116° |
| 2026-04-15 21:42 | 59.17941 | -126.58635 | 11542 ft | 215 kts | 116° |
| 2026-04-15 21:43 | 59.17312 | -126.55990 | 11546 ft | 215 kts | 116° |
| 2026-04-15 21:43 | 59.16682 | -126.53347 | 11544 ft | 215 kts | 116° |
| 2026-04-15 21:43 | 59.16049 | -126.50697 | 11548 ft | 216 kts | 117° |
| 2026-04-15 21:43 | 59.15414 | -126.48047 | 11544 ft | 216 kts | 116° |
| 2026-04-15 21:44 | 59.14775 | -126.45391 | 11525 ft | 217 kts | 116° |
| 2026-04-15 21:44 | 59.14125 | -126.42681 | 11357 ft | 224 kts | 116° |
| 2026-04-15 21:44 | 59.13459 | -126.39900 | 11240 ft | 227 kts | 116° |
| 2026-04-15 21:44 | 59.12787 | -126.37102 | 11133 ft | 230 kts | 116° |
| 2026-04-15 21:45 | 59.12106 | -126.34272 | 11011 ft | 232 kts | 116° |
| 2026-04-15 21:45 | 59.11422 | -126.31428 | 10898 ft | 232 kts | 116° |
| 2026-04-15 21:45 | 59.10739 | -126.28576 | 10800 ft | 232 kts | 116° |
| 2026-04-15 21:45 | 59.10053 | -126.25722 | 10650 ft | 235 kts | 116° |
| 2026-04-15 21:46 | 59.09352 | -126.22823 | 10461 ft | 238 kts | 116° |
| 2026-04-15 21:46 | 59.08646 | -126.19909 | 10307 ft | 238 kts | 116° |
| 2026-04-15 21:46 | 59.07944 | -126.17003 | 10171 ft | 237 kts | 116° |
| 2026-04-15 21:46 | 59.07240 | -126.14098 | 10057 ft | 237 kts | 116° |
| 2026-04-15 21:47 | 59.06537 | -126.11198 | 9938 ft | 237 kts | 116° |
| 2026-04-15 21:47 | 59.05835 | -126.08304 | 9811 ft | 237 kts | 116° |
| 2026-04-15 21:47 | 59.05134 | -126.05416 | 9675 ft | 236 kts | 116° |
| 2026-04-15 21:47 | 59.04436 | -126.02539 | 9548 ft | 235 kts | 116° |
| 2026-04-15 21:48 | 59.03738 | -125.99681 | 9470 ft | 232 kts | 116° |
| 2026-04-15 21:48 | 59.03057 | -125.96882 | 9521 ft | 227 kts | 116° |
| 2026-04-15 21:48 | 59.02394 | -125.94165 | 9537 ft | 224 kts | 117° |
| 2026-04-15 21:48 | 59.01571 | -125.91616 | 9526 ft | 223 kts | 126° |
| 2026-04-15 21:49 | 59.00667 | -125.89184 | 9522 ft | 222 kts | 127° |
| 2026-04-15 21:49 | 58.99718 | -125.86836 | 9518 ft | 220 kts | 135° |
| 2026-04-15 21:49 | 58.98548 | -125.84953 | 9531 ft | 218 kts | 147° |
| 2026-04-15 21:49 | 58.97293 | -125.83291 | 9502 ft | 219 kts | 148° |
| 2026-04-15 21:50 | 58.95999 | -125.81763 | 9518 ft | 216 kts | 155° |
| 2026-04-15 21:50 | 58.94617 | -125.80649 | 9513 ft | 215 kts | 162° |
| 2026-04-15 21:50 | 58.93199 | -125.79671 | 9367 ft | 219 kts | 163° |
| 2026-04-15 21:50 | 58.91753 | -125.78688 | 9248 ft | 221 kts | 163° |
| 2026-04-15 21:51 | 58.90291 | -125.77694 | 9115 ft | 224 kts | 163° |
| 2026-04-15 21:51 | 58.88809 | -125.76693 | 8922 ft | 228 kts | 163° |
| 2026-04-15 21:51 | 58.87301 | -125.75683 | 8701 ft | 229 kts | 163° |
| 2026-04-15 21:51 | 58.85820 | -125.74689 | 8422 ft | 222 kts | 163° |
| 2026-04-15 21:52 | 58.84398 | -125.73726 | 8140 ft | 212 kts | 163° |
| 2026-04-15 21:52 | 58.83028 | -125.72809 | 7866 ft | 205 kts | 163° |
| 2026-04-15 21:52 | 58.81699 | -125.71914 | 7593 ft | 200 kts | 163° |
| 2026-04-15 21:52 | 58.80490 | -125.70695 | 7306 ft | 195 kts | 143° |
| 2026-04-15 21:53 | 58.79552 | -125.68856 | 7040 ft | 192 kts | 123° |
| 2026-04-15 21:53 | 58.79077 | -125.66509 | 6820 ft | 191 kts | 108° |
| 2026-04-15 21:53 | 58.78718 | -125.64070 | 6601 ft | 192 kts | 107° |
| 2026-04-15 21:53 | 58.78369 | -125.61601 | 6358 ft | 191 kts | 105° |
| 2026-04-15 21:54 | 58.78405 | -125.59077 | 6089 ft | 189 kts | 76° |
| 2026-04-15 21:54 | 58.78919 | -125.56763 | 5815 ft | 187 kts | 61° |
| 2026-04-15 21:54 | 58.79583 | -125.54619 | 5538 ft | 186 kts | 59° |
| 2026-04-15 21:54 | 58.80252 | -125.52497 | 5240 ft | 184 kts | 59° |
| 2026-04-15 21:55 | 58.80916 | -125.50399 | 4944 ft | 183 kts | 59° |
| 2026-04-15 21:55 | 58.81577 | -125.48313 | 4704 ft | 182 kts | 59° |
| 2026-04-15 21:55 | 58.82221 | -125.46259 | 4478 ft | 182 kts | 59° |
| 2026-04-15 21:55 | 58.83036 | -125.44424 | 4246 ft | 180 kts | 35° |
| 2026-04-15 21:56 | 58.84073 | -125.43104 | 4040 ft | 178 kts | 29° |
| 2026-04-15 21:56 | 58.84769 | -125.42269 | 3893 ft | 178 kts | 29° |
| 2026-04-15 21:56 | 58.85756 | -125.40926 | 3835 ft | 168 kts | 44° |
| 2026-04-15 21:56 | 58.86215 | -125.38983 | 3876 ft | 156 kts | 84° |
| 2026-04-15 21:57 | 58.86096 | -125.36945 | 3958 ft | 151 kts | 97° |
| 2026-04-15 21:57 | 58.85905 | -125.34947 | 3932 ft | 152 kts | 98° |
| 2026-04-15 21:57 | 58.85651 | -125.32967 | 3920 ft | 152 kts | 103° |
| 2026-04-15 21:57 | 58.85375 | -125.30997 | 3925 ft | 151 kts | 100° |
| 2026-04-15 21:58 | 58.85163 | -125.29015 | 3924 ft | 150 kts | 98° |
| 2026-04-15 21:58 | 58.84964 | -125.27037 | 3929 ft | 150 kts | 98° |
| 2026-04-15 21:58 | 58.84785 | -125.25039 | 3925 ft | 152 kts | 90° |
| 2026-04-15 21:58 | 58.85139 | -125.23193 | 3697 ft | 144 kts | 40° |
| 2026-04-15 21:59 | 58.85915 | -125.22113 | 3360 ft | 131 kts | 30° |
| 2026-04-15 21:59 | 58.86714 | -125.21420 | 3217 ft | 125 kts | 354° |
| 2026-04-15 21:59 | 58.87282 | -125.22440 | 3107 ft | 119 kts | 275° |
| 2026-04-15 21:59 | 58.87067 | -125.23996 | 3089 ft | 124 kts | 242° |
| 2026-04-15 22:00 | 58.86520 | -125.25277 | 3050 ft | 123 kts | 226° |
| 2026-04-15 22:00 | 58.85832 | -125.25912 | 2940 ft | 105 kts | 178° |
| 2026-04-15 22:00 | 58.85189 | -125.25241 | 2688 ft | 112 kts | 130° |
| 2026-04-15 22:00 | 58.84739 | -125.24063 | 2648 ft | 105 kts | 119° |
| 2026-04-15 22:01 | 58.84414 | -125.22809 | 2857 ft | 104 kts | 108° |
| 2026-04-15 22:01 | 58.84451 | -125.21503 | 3204 ft | 106 kts | 36° |
| 2026-04-15 22:01 | 58.85164 | -125.21318 | 3451 ft | 115 kts | 351° |
| 2026-04-15 22:01 | 58.85990 | -125.21556 | 3427 ft | 121 kts | 349° |
| 2026-04-15 22:02 | 58.86785 | -125.21880 | 3363 ft | 109 kts | 339° |
| 2026-04-15 22:02 | 58.87272 | -125.22803 | 3191 ft | 98 kts | 286° |
| 2026-04-15 22:02 | 58.87245 | -125.24137 | 3029 ft | 103 kts | 262° |
| 2026-04-15 22:02 | 58.87011 | -125.25420 | 2907 ft | 100 kts | 245° |
| 2026-04-15 22:03 | 58.86557 | -125.26434 | 2771 ft | 101 kts | 213° |
| 2026-04-15 22:03 | 58.85869 | -125.26628 | 2616 ft | 104 kts | 172° |
| 2026-04-15 22:03 | 58.85253 | -125.25999 | 2462 ft | 102 kts | 123° |
| 2026-04-15 22:03 | 58.84984 | -125.24709 | 2347 ft | 102 kts | 102° |
| 2026-04-15 22:04 | 58.84846 | -125.23637 | 2311 ft | 34 kts | 101° |
| 2026-04-15 22:04 | 58.84814 | -125.23375 | 2315 ft | 13 kts | 114° |
| 2026-04-15 22:04 | 58.84831 | -125.23346 | 2313 ft | 9 kts | 266° |
| 2026-04-15 22:04 | 58.84841 | -125.23453 | 2310 ft | 4 kts | 247° |
| 2026-04-15 22:05 | 58.84840 | -125.23458 | 2310 ft | 0 kts | 230° |